createdAt,value
2023-04-18T00:00:44.183Z,9.76
2023-04-18T00:03:11.210Z,9.78
2023-04-18T00:05:38.647Z,9.75
2023-04-18T00:08:05.696Z,9.75
2023-04-18T00:10:33.119Z,9.76
2023-04-18T00:13:00.514Z,9.75
2023-04-18T00:15:29.388Z,9.74
2023-04-18T00:17:57.700Z,9.72
2023-04-18T00:20:28.177Z,9.70
2023-04-18T00:22:56.213Z,9.71
2023-04-18T00:25:23.035Z,9.69
2023-04-18T00:27:49.824Z,9.65
2023-04-18T00:30:17.713Z,9.63
2023-04-18T00:32:44.607Z,9.65
2023-04-18T00:35:11.485Z,9.65
2023-04-18T00:37:38.568Z,9.63
2023-04-18T00:40:06.034Z,9.62
2023-04-18T00:42:33.464Z,9.63
2023-04-18T00:45:01.640Z,9.62
2023-04-18T00:47:28.632Z,9.61
2023-04-18T00:49:56.214Z,9.61
2023-04-18T00:52:27.110Z,9.60
2023-04-18T00:54:54.845Z,9.61
2023-04-18T00:57:22.429Z,9.59
2023-04-18T00:59:50.672Z,9.57
2023-04-18T01:02:17.691Z,9.60
2023-04-18T01:04:45.293Z,9.57
2023-04-18T01:07:12.460Z,9.56
2023-04-18T01:09:40.551Z,9.54
2023-04-18T01:12:08.061Z,9.54
2023-04-18T01:14:34.884Z,9.53
2023-04-18T01:17:03.332Z,9.52
2023-04-18T01:19:30.412Z,9.54
2023-04-18T01:21:57.162Z,9.56
2023-04-18T01:24:26.756Z,9.55
2023-04-18T01:26:53.837Z,9.55
2023-04-18T01:29:20.815Z,9.55
2023-04-18T01:31:47.711Z,9.56
2023-04-18T01:34:17.886Z,9.57
2023-04-18T01:36:46.024Z,9.57
2023-04-18T01:39:13.472Z,9.56
2023-04-18T01:41:42.056Z,9.53
2023-04-18T01:44:11.068Z,9.53
2023-04-18T01:46:39.036Z,9.53
2023-04-18T01:49:06.512Z,9.54
2023-04-18T01:51:33.350Z,9.48
2023-04-18T01:54:00.116Z,9.49
2023-04-18T01:56:26.944Z,9.47
2023-04-18T01:58:53.689Z,9.47
2023-04-18T02:01:20.882Z,9.47
2023-04-18T02:03:47.974Z,9.47
2023-04-18T02:06:15.107Z,9.46
2023-04-18T02:08:41.852Z,9.46
2023-04-18T02:11:09.215Z,9.46
2023-04-18T02:13:36.554Z,9.42
2023-04-18T02:16:11.684Z,9.44
2023-04-18T02:18:40.277Z,9.45
2023-04-18T02:21:07.233Z,9.41
2023-04-18T02:23:34.125Z,9.41
2023-04-18T02:26:01.061Z,9.44
2023-04-18T02:28:27.953Z,9.41
2023-04-18T02:30:54.723Z,9.41
2023-04-18T02:33:21.702Z,9.41
2023-04-18T02:35:48.453Z,9.44
2023-04-18T02:38:16.152Z,9.41
2023-04-18T02:40:42.989Z,9.39
2023-04-18T02:43:09.897Z,9.41
2023-04-18T02:45:36.799Z,9.37
2023-04-18T02:48:04.663Z,9.39
2023-04-18T02:50:33.320Z,9.38
2023-04-18T02:53:00.370Z,9.37
2023-04-18T02:55:37.714Z,9.35
2023-04-18T02:58:04.694Z,9.32
2023-04-18T03:00:51.046Z,9.32
2023-04-18T03:03:38.225Z,9.32
2023-04-18T03:06:19.574Z,9.32
2023-04-18T03:08:46.779Z,9.34
2023-04-18T03:11:14.162Z,9.34
2023-04-18T03:13:41.182Z,9.35
2023-04-18T03:16:08.424Z,9.33
2023-04-18T03:18:35.844Z,9.33
2023-04-18T03:21:03.521Z,9.33
2023-04-18T03:23:33.244Z,9.33
2023-04-18T03:26:02.796Z,9.32
2023-04-18T03:28:32.067Z,9.31
2023-04-18T03:30:59.789Z,9.32
2023-04-18T03:33:28.813Z,9.31
2023-04-18T03:36:06.124Z,9.30
2023-04-18T03:38:33.349Z,9.29
2023-04-18T03:41:00.474Z,9.29
2023-04-18T03:43:33.134Z,9.30
2023-04-18T03:46:00.539Z,9.31
2023-04-18T03:48:29.091Z,9.32
2023-04-18T03:50:59.668Z,9.32
2023-04-18T03:53:27.540Z,9.30
2023-04-18T03:55:56.514Z,9.27
2023-04-18T03:58:29.897Z,9.26
2023-04-18T04:00:56.773Z,9.27
2023-04-18T04:03:23.858Z,9.27
2023-04-18T04:05:51.068Z,9.29
2023-04-18T04:08:17.875Z,9.30
2023-04-18T04:10:45.559Z,9.30
2023-04-18T04:13:12.594Z,9.26
2023-04-18T04:15:41.000Z,9.27
2023-04-18T04:18:10.102Z,9.27
2023-04-18T04:20:40.620Z,9.29
2023-04-18T04:23:12.656Z,9.29
2023-04-18T04:25:41.768Z,9.25
2023-04-18T04:28:17.884Z,9.26
2023-04-18T04:30:54.353Z,9.30
2023-04-18T04:33:25.607Z,9.30
2023-04-18T04:35:56.516Z,9.27
2023-04-18T04:38:25.018Z,9.23
2023-04-18T04:40:53.913Z,9.22
2023-04-18T04:43:21.695Z,9.25
2023-04-18T04:45:51.514Z,9.25
2023-04-18T04:48:22.417Z,9.21
2023-04-18T04:50:57.172Z,9.22
2023-04-18T04:53:26.268Z,9.24
2023-04-18T04:55:53.628Z,9.21
2023-04-18T04:58:22.565Z,9.23
2023-04-18T05:01:08.225Z,9.21
2023-04-18T05:03:36.932Z,9.22
2023-04-18T05:06:04.668Z,9.23
2023-04-18T05:08:32.075Z,9.22
2023-04-18T05:10:58.866Z,9.20
2023-04-18T05:13:25.811Z,9.21
2023-04-18T05:15:52.717Z,9.22
2023-04-18T05:18:20.803Z,9.24
2023-04-18T05:20:47.682Z,9.21
2023-04-18T05:23:14.638Z,9.22
2023-04-18T05:25:41.714Z,9.22
2023-04-18T05:28:08.626Z,9.20
2023-04-18T05:30:35.497Z,9.20
2023-04-18T05:33:02.455Z,9.20
2023-04-18T05:35:30.847Z,9.18
2023-04-18T05:37:58.792Z,9.19
2023-04-18T05:40:27.410Z,9.20
2023-04-18T05:42:54.443Z,9.18
2023-04-18T05:45:21.256Z,9.20
2023-04-18T05:47:48.228Z,9.19
2023-04-18T05:50:15.073Z,9.19
2023-04-18T05:52:42.023Z,9.18
2023-04-18T05:55:09.372Z,9.20
2023-04-18T05:57:36.285Z,9.17
2023-04-18T06:00:06.845Z,9.20
2023-04-18T06:02:40.978Z,9.19
2023-04-18T06:05:09.367Z,9.20
2023-04-18T06:07:36.491Z,9.18
2023-04-18T06:10:03.836Z,9.16
2023-04-18T06:12:30.716Z,9.18
2023-04-18T06:14:57.783Z,9.18
2023-04-18T06:17:24.876Z,9.18
2023-04-18T06:19:51.781Z,9.18
2023-04-18T06:22:18.633Z,9.18
2023-04-18T06:24:46.097Z,9.18
2023-04-18T06:27:20.712Z,9.18
2023-04-18T06:29:56.248Z,9.17
2023-04-18T06:32:23.068Z,9.18
2023-04-18T06:34:50.436Z,9.17
2023-04-18T06:37:18.047Z,9.18
2023-04-18T06:39:44.907Z,9.18
2023-04-18T06:42:11.782Z,9.17
2023-04-18T06:44:44.575Z,9.18
2023-04-18T06:47:11.620Z,9.15
2023-04-18T06:49:38.565Z,9.16
2023-04-18T06:52:05.810Z,9.16
2023-04-18T06:54:32.748Z,9.18
2023-04-18T06:56:59.915Z,9.15
2023-04-18T06:59:26.987Z,9.15
2023-04-18T07:01:54.044Z,9.15
2023-04-18T07:04:21.219Z,9.15
2023-04-18T07:06:48.285Z,9.18
2023-04-18T07:09:15.118Z,9.03
2023-04-18T07:11:42.190Z,9.04
2023-04-18T07:14:12.376Z,9.10
2023-04-18T07:16:39.553Z,9.16
2023-04-18T07:19:06.857Z,9.17
2023-04-18T07:21:33.748Z,9.15
2023-04-18T07:24:00.737Z,9.17
2023-04-18T07:26:27.791Z,9.18
2023-04-18T07:28:55.575Z,9.17
2023-04-18T07:31:23.118Z,9.18
2023-04-18T07:33:49.880Z,9.19
2023-04-18T07:36:16.833Z,9.21
2023-04-18T07:38:44.498Z,9.20
2023-04-18T07:41:11.394Z,9.22
2023-04-18T07:43:38.927Z,9.24
2023-04-18T07:46:06.743Z,9.22
2023-04-18T07:48:33.624Z,9.22
2023-04-18T07:51:00.501Z,9.25
2023-04-18T07:53:27.368Z,9.26
2023-04-18T07:55:55.677Z,9.25
2023-04-18T07:58:22.630Z,9.27
2023-04-18T08:00:50.059Z,9.27
2023-04-18T08:03:17.054Z,9.30
2023-04-18T08:05:44.195Z,9.27
2023-04-18T08:08:12.125Z,9.30
2023-04-18T08:10:39.164Z,9.30
2023-04-18T08:13:07.092Z,9.30
2023-04-18T08:15:34.100Z,9.29
2023-04-18T08:18:01.548Z,9.25
2023-04-18T08:20:28.748Z,9.27
2023-04-18T08:25:26.184Z,9.30
2023-04-18T08:27:53.100Z,9.29
2023-04-18T08:30:20.040Z,9.32
2023-04-18T08:32:46.970Z,9.30
2023-04-18T08:35:13.985Z,9.29
2023-04-18T08:37:41.219Z,9.27
2023-04-18T08:40:09.294Z,9.26
2023-04-18T08:42:38.608Z,9.29
2023-04-18T08:45:10.062Z,9.31
2023-04-18T08:47:37.102Z,9.27
2023-04-18T08:50:04.466Z,9.27
2023-04-18T08:52:33.380Z,9.26
2023-04-18T08:55:02.728Z,9.26
2023-04-18T08:57:31.090Z,9.25
2023-04-18T09:00:00.744Z,9.24
2023-04-18T09:02:44.655Z,9.24
2023-04-18T09:05:19.105Z,9.23
2023-04-18T09:07:48.077Z,9.22
2023-04-18T09:10:28.963Z,9.23
2023-04-18T09:12:57.580Z,9.24
2023-04-18T09:15:29.779Z,9.24
2023-04-18T09:18:03.255Z,9.26
2023-04-18T09:20:35.178Z,9.24
2023-04-18T09:23:05.100Z,9.24
2023-04-18T09:25:45.049Z,9.22
2023-04-18T09:28:27.210Z,9.23
2023-04-18T09:30:56.232Z,9.26
2023-04-18T09:33:37.106Z,9.27
2023-04-18T09:36:18.647Z,9.26
2023-04-18T09:38:46.020Z,9.23
2023-04-18T09:41:15.656Z,9.24
2023-04-18T09:43:43.744Z,9.23
2023-04-18T09:46:11.452Z,9.24
2023-04-18T09:48:40.072Z,9.24
2023-04-18T09:51:09.912Z,9.24
2023-04-18T09:53:41.269Z,9.25
2023-04-18T09:56:25.991Z,9.24
2023-04-18T09:59:01.023Z,9.23
2023-04-18T10:01:29.666Z,9.22
2023-04-18T10:03:57.677Z,9.24
2023-04-18T10:06:27.460Z,9.25
2023-04-18T10:08:55.564Z,9.27
2023-04-18T10:11:24.294Z,9.26
2023-04-18T10:13:55.746Z,9.29
2023-04-18T10:16:23.349Z,9.27
2023-04-18T10:18:51.302Z,9.27
2023-04-18T10:21:19.291Z,9.25
2023-04-18T10:23:49.018Z,9.22
2023-04-18T10:26:16.345Z,9.22
2023-04-18T10:28:57.397Z,9.24
2023-04-18T10:31:27.000Z,9.21
2023-04-18T10:34:07.009Z,9.25
2023-04-18T10:36:34.075Z,9.27
2023-04-18T10:39:19.427Z,9.26
2023-04-18T10:41:51.117Z,9.25
2023-04-18T10:44:24.664Z,9.25
2023-04-18T10:46:51.556Z,9.27
2023-04-18T10:49:28.346Z,9.33
2023-04-18T10:51:58.739Z,9.29
2023-04-18T10:54:37.776Z,9.27
2023-04-18T10:57:12.116Z,9.25
2023-04-18T10:59:42.014Z,9.25
2023-04-18T11:02:36.134Z,9.26
2023-04-18T11:05:06.876Z,9.24
2023-04-18T11:07:48.836Z,9.22
2023-04-18T11:10:25.432Z,9.22
2023-04-18T11:12:53.534Z,9.17
2023-04-18T11:15:22.834Z,9.16
2023-04-18T11:18:16.155Z,9.18
2023-04-18T11:20:50.779Z,9.23
2023-04-18T11:23:25.094Z,9.25
2023-04-18T11:25:54.439Z,9.25
2023-04-18T11:28:22.444Z,9.25
2023-04-18T11:30:49.702Z,9.30
2023-04-18T11:33:16.823Z,9.31
2023-04-18T11:35:45.379Z,9.26
2023-04-18T11:38:16.530Z,9.27
2023-04-18T11:40:50.417Z,9.26
2023-04-18T11:43:25.985Z,9.31
2023-04-18T11:45:57.489Z,9.35
2023-04-18T11:48:33.857Z,9.34
2023-04-18T11:51:01.147Z,9.34
2023-04-18T11:53:38.931Z,9.32
2023-04-18T11:56:06.381Z,9.33
2023-04-18T11:58:36.817Z,9.33
2023-04-18T12:01:21.092Z,9.34
2023-04-18T12:04:08.161Z,9.34
2023-04-18T12:06:52.507Z,9.34
2023-04-18T12:09:22.093Z,9.32
2023-04-18T12:12:02.808Z,9.31
2023-04-18T12:14:30.446Z,9.29
2023-04-18T12:16:57.226Z,9.27
2023-04-18T12:19:28.262Z,9.32
2023-04-18T12:22:06.854Z,9.33
2023-04-18T12:24:33.919Z,9.32
2023-04-18T12:27:00.720Z,9.33
2023-04-18T12:29:28.851Z,9.36
2023-04-18T12:31:55.884Z,9.40
2023-04-18T12:34:22.783Z,9.41
2023-04-18T12:36:49.621Z,9.40
2023-04-18T12:39:16.674Z,9.39
2023-04-18T12:41:43.759Z,9.42
2023-04-18T12:44:10.694Z,9.45
2023-04-18T12:46:37.587Z,9.51
2023-04-18T12:49:04.595Z,9.52
2023-04-18T12:51:31.883Z,9.54
2023-04-18T12:53:58.957Z,9.55
2023-04-18T12:56:25.823Z,9.52
2023-04-18T12:58:52.739Z,9.52
2023-04-18T13:01:19.908Z,9.55
2023-04-18T13:03:53.411Z,9.61
2023-04-18T13:06:27.263Z,9.61
2023-04-18T13:08:54.036Z,9.59
2023-04-18T13:11:22.525Z,9.61
2023-04-18T13:13:49.391Z,9.67
2023-04-18T13:16:16.660Z,9.65
2023-04-18T13:18:43.470Z,9.63
2023-04-18T13:21:10.442Z,9.64
2023-04-18T13:23:37.344Z,9.68
2023-04-18T13:26:04.296Z,9.69
2023-04-18T13:28:31.089Z,9.70
2023-04-18T13:30:59.720Z,9.67
2023-04-18T13:33:26.460Z,9.68
2023-04-18T13:35:53.359Z,9.68
2023-04-18T13:38:20.303Z,9.65
2023-04-18T13:40:47.120Z,9.65
2023-04-18T13:43:15.421Z,9.63
2023-04-18T13:45:42.365Z,9.64
2023-04-18T13:48:09.277Z,9.65
2023-04-18T13:50:36.190Z,9.66
2023-04-18T13:53:03.059Z,9.65
2023-04-18T13:55:29.990Z,9.63
2023-04-18T13:57:56.966Z,9.68
2023-04-18T14:00:23.868Z,9.70
2023-04-18T14:02:50.940Z,9.71
2023-04-18T14:05:18.205Z,9.68
2023-04-18T14:07:45.036Z,9.67
2023-04-18T14:10:12.024Z,9.68
2023-04-18T14:12:39.985Z,9.72
2023-04-18T14:15:07.648Z,9.69
2023-04-18T14:17:34.857Z,9.70
2023-04-18T14:20:02.428Z,9.70
2023-04-18T14:22:29.247Z,9.72
2023-04-18T14:24:56.389Z,9.75
2023-04-18T14:27:25.538Z,9.74
2023-04-18T14:29:52.422Z,9.74
2023-04-18T14:32:19.407Z,9.75
2023-04-18T14:34:46.415Z,9.79
2023-04-18T14:37:14.983Z,9.78
2023-04-18T14:39:42.504Z,9.78
2023-04-18T14:42:09.512Z,9.77
2023-04-18T14:44:36.349Z,9.78
2023-04-18T14:47:03.314Z,9.80
2023-04-18T14:49:30.253Z,9.81
2023-04-18T14:51:57.017Z,9.83
2023-04-18T14:54:24.054Z,9.84
2023-04-18T14:56:51.382Z,9.86
2023-04-18T14:59:18.432Z,9.88
2023-04-18T15:01:45.729Z,9.84
2023-04-18T15:04:13.075Z,9.85
2023-04-18T15:06:40.108Z,9.86
2023-04-18T15:09:07.027Z,9.89
2023-04-18T15:11:33.881Z,9.90
2023-04-18T15:14:00.813Z,9.92
2023-04-18T15:16:27.733Z,9.95
2023-04-18T15:18:54.593Z,9.96
2023-04-18T15:21:21.330Z,9.96
2023-04-18T15:23:48.273Z,9.97
2023-04-18T15:26:15.305Z,9.99
2023-04-18T15:28:42.173Z,9.98
2023-04-18T15:31:09.673Z,9.99
2023-04-18T15:33:36.776Z,10.00
2023-04-18T15:36:03.820Z,10.00
2023-04-18T15:38:32.838Z,10.04
2023-04-18T15:41:00.130Z,10.05
2023-04-18T15:43:27.012Z,10.04
2023-04-18T15:45:53.901Z,10.04
2023-04-18T15:48:20.837Z,10.06
2023-04-18T15:50:53.519Z,10.06
2023-04-18T15:53:20.728Z,10.06
2023-04-18T15:55:47.669Z,10.07
2023-04-18T15:58:14.666Z,10.06
2023-04-18T16:00:41.722Z,10.08
2023-04-18T16:03:10.501Z,10.10
2023-04-18T16:05:37.443Z,10.08
2023-04-18T16:08:04.438Z,10.08
2023-04-18T16:10:31.322Z,10.08
2023-04-18T16:12:59.486Z,10.09
2023-04-18T16:15:26.337Z,10.07
2023-04-18T16:17:53.627Z,10.08
2023-04-18T16:20:20.818Z,10.08
2023-04-18T16:22:48.199Z,10.06
2023-04-18T16:25:15.300Z,10.05
2023-04-18T16:27:42.682Z,10.10
2023-04-18T16:30:12.497Z,10.11
2023-04-18T16:32:39.495Z,10.12
2023-04-18T16:35:10.112Z,10.11
2023-04-18T16:37:40.809Z,10.12
2023-04-18T16:40:12.560Z,10.12
2023-04-18T16:42:41.080Z,10.13
2023-04-18T16:45:08.387Z,10.11
2023-04-18T16:47:35.990Z,10.11
2023-04-18T16:50:02.844Z,10.10
2023-04-18T16:52:30.989Z,10.07
2023-04-18T16:54:57.840Z,10.07
2023-04-18T16:57:24.756Z,10.10
2023-04-18T16:59:51.528Z,10.09
2023-04-18T17:02:18.718Z,10.10
2023-04-18T17:04:46.060Z,10.09
2023-04-18T17:07:13.247Z,10.10
2023-04-18T17:09:40.076Z,10.08
2023-04-18T17:12:07.125Z,10.05
2023-04-18T17:14:33.871Z,10.07
2023-04-18T17:17:00.809Z,10.06
2023-04-18T17:19:27.563Z,10.05
2023-04-18T17:21:54.643Z,10.06
2023-04-18T17:24:22.704Z,10.06
2023-04-18T17:26:49.870Z,10.04
2023-04-18T17:29:17.008Z,10.04
2023-04-18T17:31:44.323Z,10.06
2023-04-18T17:34:11.174Z,10.04
2023-04-18T17:36:38.246Z,10.03
2023-04-18T17:39:07.823Z,10.05
2023-04-18T17:41:38.907Z,10.03
2023-04-18T17:44:07.680Z,10.01
2023-04-18T17:46:34.566Z,10.00
2023-04-18T17:49:01.596Z,9.99
2023-04-18T17:51:28.419Z,10.00
2023-04-18T17:53:55.331Z,9.96
2023-04-18T17:56:22.404Z,9.98
2023-04-18T17:58:49.520Z,9.96
2023-04-18T18:01:18.704Z,9.94
2023-04-18T18:03:46.078Z,9.97
2023-04-18T18:06:14.345Z,9.97
2023-04-18T18:08:42.831Z,9.94
2023-04-18T18:11:10.741Z,9.96
2023-04-18T18:13:40.913Z,9.95
2023-04-18T18:16:08.915Z,9.95
2023-04-18T18:18:36.443Z,9.96
2023-04-18T18:21:03.751Z,9.94
2023-04-18T18:23:30.849Z,9.90
2023-04-18T18:25:57.754Z,9.92
2023-04-18T18:28:24.583Z,9.89
2023-04-18T18:30:51.647Z,9.89
2023-04-18T18:33:19.014Z,9.91
2023-04-18T18:35:46.080Z,9.91
2023-04-18T18:38:12.875Z,9.92
2023-04-18T18:40:39.794Z,9.90
2023-04-18T18:43:06.607Z,9.86
2023-04-18T18:45:33.487Z,9.84
2023-04-18T18:48:00.723Z,9.88
2023-04-18T18:50:27.657Z,9.84
2023-04-18T18:52:54.426Z,9.82
2023-04-18T18:55:21.339Z,9.85
2023-04-18T18:57:48.186Z,9.91
2023-04-18T19:00:15.161Z,9.88
2023-04-18T19:02:42.227Z,9.85
2023-04-18T19:05:09.638Z,9.81
2023-04-18T19:07:36.645Z,9.80
2023-04-18T19:10:04.773Z,9.82
2023-04-18T19:12:31.533Z,9.84
2023-04-18T19:14:58.513Z,9.80
2023-04-18T19:17:25.760Z,9.78
2023-04-18T19:19:53.350Z,9.76
2023-04-18T19:22:20.220Z,9.75
2023-04-18T19:24:47.499Z,9.76
2023-04-18T19:27:14.318Z,9.75
2023-04-18T19:29:41.361Z,9.75
2023-04-18T19:32:08.422Z,9.72
2023-04-18T19:34:35.626Z,9.70
2023-04-18T19:37:02.414Z,9.70
2023-04-18T19:39:29.730Z,9.69
2023-04-18T19:41:56.972Z,9.71
2023-04-18T19:44:23.973Z,9.68
2023-04-18T19:46:51.066Z,9.67
2023-04-18T19:49:18.446Z,9.68
2023-04-18T19:51:45.293Z,9.66
2023-04-18T19:54:12.410Z,9.67
2023-04-18T19:56:39.150Z,9.65
2023-04-18T19:59:06.212Z,9.65
2023-04-18T20:01:33.174Z,9.63
2023-04-18T20:04:00.596Z,9.63
2023-04-18T20:06:27.862Z,9.61
2023-04-18T20:08:54.908Z,9.60
2023-04-18T20:11:22.230Z,9.62
2023-04-18T20:13:49.423Z,9.61
2023-04-18T20:16:16.957Z,9.61
2023-04-18T20:18:47.300Z,9.60
2023-04-18T20:21:14.320Z,9.57
2023-04-18T20:23:45.295Z,9.57
2023-04-18T20:26:12.165Z,9.56
2023-04-18T20:28:39.123Z,9.55
2023-04-18T20:31:06.096Z,9.55
2023-04-18T20:33:33.156Z,9.55
2023-04-18T20:36:00.327Z,9.54
2023-04-18T20:38:29.402Z,9.53
2023-04-18T20:40:58.880Z,9.52
2023-04-18T20:43:26.034Z,9.52
2023-04-18T20:45:54.480Z,9.49
2023-04-18T20:48:21.476Z,9.51
2023-04-18T20:50:51.605Z,9.50
2023-04-18T20:53:20.956Z,9.49
2023-04-18T20:55:48.790Z,9.48
2023-04-18T20:58:15.879Z,9.46
2023-04-18T21:00:44.507Z,9.46
2023-04-18T21:03:15.056Z,9.45
2023-04-18T21:05:43.096Z,9.45
2023-04-18T21:08:10.921Z,9.45
2023-04-18T21:10:37.906Z,9.42
2023-04-18T21:13:04.651Z,9.41
2023-04-18T21:15:31.640Z,9.41
2023-04-18T21:17:58.424Z,9.39
2023-04-18T21:20:25.324Z,9.39
2023-04-18T21:22:52.129Z,9.37
2023-04-18T21:25:21.225Z,9.37
2023-04-18T21:27:50.440Z,9.36
2023-04-18T21:30:17.566Z,9.35
2023-04-18T21:32:44.510Z,9.35
2023-04-18T21:35:11.774Z,9.37
2023-04-18T21:37:38.565Z,9.35
2023-04-18T21:40:06.225Z,9.35
2023-04-18T21:42:35.120Z,9.35
2023-04-18T21:45:02.262Z,9.35
2023-04-18T21:47:29.074Z,9.32
2023-04-18T21:49:55.985Z,9.33
2023-04-18T21:52:22.937Z,9.32
2023-04-18T21:54:49.912Z,9.32
2023-04-18T21:57:16.858Z,9.30
2023-04-18T21:59:43.810Z,9.29
2023-04-18T22:02:10.781Z,9.27
2023-04-18T22:04:38.186Z,9.27
2023-04-18T22:07:05.143Z,9.27
2023-04-18T22:09:36.304Z,9.26
2023-04-18T22:12:04.340Z,9.26
2023-04-18T22:14:34.091Z,9.25
2023-04-18T22:17:04.898Z,9.26
2023-04-18T22:19:32.437Z,9.25
2023-04-18T22:21:59.377Z,9.26
2023-04-18T22:24:26.300Z,9.27
2023-04-18T22:26:53.485Z,9.26
2023-04-18T22:29:20.634Z,9.27
2023-04-18T22:31:47.461Z,9.25
2023-04-18T22:34:14.451Z,9.25
2023-04-18T22:36:42.870Z,9.25
2023-04-18T22:39:09.808Z,9.25
2023-04-18T22:41:36.616Z,9.24
2023-04-18T22:44:04.744Z,9.23
2023-04-18T22:46:32.964Z,9.21
2023-04-18T22:48:59.981Z,9.21
2023-04-18T22:51:28.760Z,9.20
2023-04-18T22:53:56.395Z,9.18
2023-04-18T22:56:23.367Z,9.19
2023-04-18T22:58:50.336Z,9.20
2023-04-18T23:01:17.233Z,9.20
2023-04-18T23:03:44.543Z,9.20
2023-04-18T23:06:11.596Z,9.18
2023-04-18T23:08:38.536Z,9.18
2023-04-18T23:11:05.356Z,9.14
2023-04-18T23:13:32.393Z,9.14
2023-04-18T23:15:59.271Z,9.12
2023-04-18T23:18:29.043Z,9.12
2023-04-18T23:20:55.812Z,9.11
2023-04-18T23:23:22.695Z,9.09
2023-04-18T23:25:49.465Z,9.11
2023-04-18T23:28:17.230Z,9.10
2023-04-18T23:30:44.366Z,9.11
2023-04-18T23:33:11.462Z,9.11
2023-04-18T23:35:38.741Z,9.11
2023-04-18T23:38:05.544Z,9.10
2023-04-18T23:40:32.389Z,9.09
2023-04-18T23:42:59.241Z,9.09
2023-04-18T23:45:26.160Z,9.07
2023-04-18T23:47:53.300Z,9.05
2023-04-18T23:50:20.459Z,9.03
2023-04-18T23:52:47.295Z,9.05
2023-04-18T23:55:14.107Z,9.05
2023-04-18T23:57:40.981Z,9.06
